Columbus, OH (43270)

4:46 AM EST on November 27, 2014 (GMT -0500)
OHDOT 118-IR70/IR71/SR315 | Change Station
CLOSE
Current Station
Personal Weather Station
Location: Columbus, OH
Elevation: 708 ft
Nearby Weather Stations

Elev 708 ft 39.95 °N, 83.02 °W | Updated 53 minutes ago

Partly Cloudy
Partly Cloudy
31 °F
Feels Like 27 °F
N
4
Wind Variable Wind from NNE
Gusts 7.0 mph

Today
High -- | Low -- °F
--% Chance of Precip.
Yesterday
High -- | Low -- °F
Precip. -- in
7:30 AM 5:08 PM
Waxing Crescent, 28% visible
Pressure 30.06 in
Visibility 7.0 miles
Clouds Few 900 ft
Windchill 27 °F
Dew Point 26 °F
Humidity 79%
Rainfall -999.00 in
Snow Depth Not available.
UV 0 out of 12
Pollen .10 out of 12
Air Quality Not available.
Flu Activity Not available.
SPECI KCMH 270933Z 33007KT 7SM FEW009 M01/M04 A3006 RMK AO2

More Conditions Fewer Conditions

Pressure 30.06 in
Visibility 7.0 miles
Clouds Few 900 ft
Windchill 27 °F
Dew Point 26 °F
Humidity 79%
Rainfall -999.00 in
Snow Depth Not available.
UV 0 out of 12
Pollen .10 out of 12
Air Quality Not available.
Flu Activity Not available.
SPECI KCMH 270933Z 33007KT 7SM FEW009 M01/M04 A3006 RMK AO2

More Conditions Fewer Conditions

10-Day Weather Forecast

Almanac

Astronomy

Nov. 27, 2014 Rise Set
Actual Time
Civil Twilight
Nautical Twilight
Astronomical Twilight
Moon
Length of Visible Light
Length of Day
Tomorrow will be .
, % of the Moon is Illuminated

Today's Extremes

State Highs State Lows

Community

WunderPhotos

Upload Photos

1,773,965 photos uploaded!

WunderBlogs® & News

Nearby

Air Quality

  Air Quality AQ Index Pollutant
Not available.

Snow Depth

Station Depth Elevation

Earthquake Activity

City Distance Mag. Time & Date
Minimum magnitude displayed is 2.5.

Coastal Water Temperatures

Place Temperature

Nearby Weather Stations